sensor_id;sensor_type;location;lat;lon;timestamp;P1;durP1;ratioP1;P2;durP2;ratioP2
15697;SDS011;7949;48.726;9.102;2024-02-14T00:00:59;8.50;;;3.00;;
15697;SDS011;7949;48.726;9.102;2024-02-14T00:03:26;5.70;;;2.45;;
15697;SDS011;7949;48.726;9.102;2024-02-14T00:05:53;9.35;;;3.20;;
15697;SDS011;7949;48.726;9.102;2024-02-14T00:08:21;5.97;;;3.22;;
15697;SDS011;7949;48.726;9.102;2024-02-14T00:10:49;10.45;;;2.75;;
15697;SDS011;7949;48.726;9.102;2024-02-14T00:13:16;5.50;;;2.90;;
15697;SDS011;7949;48.726;9.102;2024-02-14T00:15:44;5.68;;;2.63;;
15697;SDS011;7949;48.726;9.102;2024-02-14T00:18:12;8.63;;;3.05;;
15697;SDS011;7949;48.726;9.102;2024-02-14T00:20:40;5.75;;;2.97;;
15697;SDS011;7949;48.726;9.102;2024-02-14T00:23:07;8.02;;;2.92;;
15697;SDS011;7949;48.726;9.102;2024-02-14T00:25:34;7.32;;;2.35;;
15697;SDS011;7949;48.726;9.102;2024-02-14T00:28:03;4.63;;;2.58;;
15697;SDS011;7949;48.726;9.102;2024-02-14T00:30:31;7.60;;;2.30;;
15697;SDS011;7949;48.726;9.102;2024-02-14T00:32:59;6.65;;;2.95;;
15697;SDS011;7949;48.726;9.102;2024-02-14T00:35:26;6.13;;;2.78;;
15697;SDS011;7949;48.726;9.102;2024-02-14T00:37:54;5.90;;;2.47;;
15697;SDS011;7949;48.726;9.102;2024-02-14T00:40:21;7.38;;;2.60;;
15697;SDS011;7949;48.726;9.102;2024-02-14T00:42:48;10.10;;;2.53;;
15697;SDS011;7949;48.726;9.102;2024-02-14T00:45:17;7.90;;;2.78;;
15697;SDS011;7949;48.726;9.102;2024-02-14T00:47:44;5.53;;;2.70;;
15697;SDS011;7949;48.726;9.102;2024-02-14T00:50:12;6.28;;;2.70;;
15697;SDS011;7949;48.726;9.102;2024-02-14T00:52:39;4.22;;;2.38;;
15697;SDS011;7949;48.726;9.102;2024-02-14T00:55:07;7.38;;;2.55;;
15697;SDS011;7949;48.726;9.102;2024-02-14T00:57:34;6.07;;;3.55;;
15697;SDS011;7949;48.726;9.102;2024-02-14T01:00:01;4.75;;;2.55;;
15697;SDS011;7949;48.726;9.102;2024-02-14T01:02:32;3.95;;;2.22;;
15697;SDS011;7949;48.726;9.102;2024-02-14T01:04:59;5.40;;;2.58;;
15697;SDS011;7949;48.726;9.102;2024-02-14T01:07:27;5.00;;;2.22;;
15697;SDS011;7949;48.726;9.102;2024-02-14T01:09:54;6.72;;;2.75;;
15697;SDS011;7949;48.726;9.102;2024-02-14T01:12:21;5.10;;;2.83;;
15697;SDS011;7949;48.726;9.102;2024-02-14T01:14:48;6.78;;;2.67;;
15697;SDS011;7949;48.726;9.102;2024-02-14T01:17:16;4.80;;;2.47;;
15697;SDS011;7949;48.726;9.102;2024-02-14T01:19:44;11.52;;;3.33;;
15697;SDS011;7949;48.726;9.102;2024-02-14T01:22:12;4.07;;;2.45;;
15697;SDS011;7949;48.726;9.102;2024-02-14T01:24:41;6.15;;;2.70;;
15697;SDS011;7949;48.726;9.102;2024-02-14T01:27:09;6.28;;;2.53;;
15697;SDS011;7949;48.726;9.102;2024-02-14T01:29:36;10.95;;;2.92;;
15697;SDS011;7949;48.726;9.102;2024-02-14T01:32:03;9.20;;;2.70;;
15697;SDS011;7949;48.726;9.102;2024-02-14T01:34:32;5.35;;;2.85;;
15697;SDS011;7949;48.726;9.102;2024-02-14T01:37:00;6.22;;;3.25;;
15697;SDS011;7949;48.726;9.102;2024-02-14T01:39:28;7.72;;;2.58;;
15697;SDS011;7949;48.726;9.102;2024-02-14T01:41:56;5.47;;;3.10;;
15697;SDS011;7949;48.726;9.102;2024-02-14T01:44:23;6.78;;;2.75;;
15697;SDS011;7949;48.726;9.102;2024-02-14T01:46:50;9.13;;;3.28;;
15697;SDS011;7949;48.726;9.102;2024-02-14T01:49:18;10.32;;;3.10;;
15697;SDS011;7949;48.726;9.102;2024-02-14T01:51:45;6.53;;;2.80;;
15697;SDS011;7949;48.726;9.102;2024-02-14T01:54:14;7.15;;;3.08;;
15697;SDS011;7949;48.726;9.102;2024-02-14T01:56:43;6.10;;;2.70;;
15697;SDS011;7949;48.726;9.102;2024-02-14T01:59:11;6.13;;;3.20;;
15697;SDS011;7949;48.726;9.102;2024-02-14T02:01:38;7.18;;;3.05;;
15697;SDS011;7949;48.726;9.102;2024-02-14T02:04:06;6.40;;;2.83;;
15697;SDS011;7949;48.726;9.102;2024-02-14T02:06:33;7.20;;;3.17;;
15697;SDS011;7949;48.726;9.102;2024-02-14T02:09:00;6.45;;;2.92;;
15697;SDS011;7949;48.726;9.102;2024-02-14T02:11:29;8.95;;;3.15;;
15697;SDS011;7949;48.726;9.102;2024-02-14T02:13:56;8.75;;;3.00;;
15697;SDS011;7949;48.726;9.102;2024-02-14T02:16:24;7.68;;;2.97;;
15697;SDS011;7949;48.726;9.102;2024-02-14T02:18:52;7.53;;;3.45;;
15697;SDS011;7949;48.726;9.102;2024-02-14T02:21:19;9.18;;;2.92;;
15697;SDS011;7949;48.726;9.102;2024-02-14T02:23:49;6.40;;;3.17;;
15697;SDS011;7949;48.726;9.102;2024-02-14T02:26:17;6.45;;;3.92;;
15697;SDS011;7949;48.726;9.102;2024-02-14T02:28:44;5.43;;;2.90;;
15697;SDS011;7949;48.726;9.102;2024-02-14T02:31:12;9.13;;;3.05;;
15697;SDS011;7949;48.726;9.102;2024-02-14T02:33:39;10.50;;;3.08;;
15697;SDS011;7949;48.726;9.102;2024-02-14T02:36:06;7.10;;;3.05;;
15697;SDS011;7949;48.726;9.102;2024-02-14T02:38:34;9.20;;;3.40;;
15697;SDS011;7949;48.726;9.102;2024-02-14T02:41:04;4.80;;;3.00;;
15697;SDS011;7949;48.726;9.102;2024-02-14T02:43:31;7.68;;;3.10;;
15697;SDS011;7949;48.726;9.102;2024-02-14T02:45:59;10.13;;;3.33;;
15697;SDS011;7949;48.726;9.102;2024-02-14T02:48:26;5.60;;;3.17;;
15697;SDS011;7949;48.726;9.102;2024-02-14T02:50:53;8.27;;;3.85;;
15697;SDS011;7949;48.726;9.102;2024-02-14T02:53:21;5.72;;;2.78;;
15697;SDS011;7949;48.726;9.102;2024-02-14T02:55:49;4.18;;;2.78;;
15697;SDS011;7949;48.726;9.102;2024-02-14T02:58:20;10.48;;;3.20;;
15697;SDS011;7949;48.726;9.102;2024-02-14T03:00:48;6.70;;;3.22;;
15697;SDS011;7949;48.726;9.102;2024-02-14T03:03:15;10.35;;;3.67;;
15697;SDS011;7949;48.726;9.102;2024-02-14T03:05:42;8.73;;;2.90;;
15697;SDS011;7949;48.726;9.102;2024-02-14T03:08:10;8.52;;;3.40;;
15697;SDS011;7949;48.726;9.102;2024-02-14T03:10:40;4.78;;;3.35;;
15697;SDS011;7949;48.726;9.102;2024-02-14T03:13:07;5.40;;;3.22;;
15697;SDS011;7949;48.726;9.102;2024-02-14T03:15:38;15.75;;;3.10;;
15697;SDS011;7949;48.726;9.102;2024-02-14T03:18:05;10.15;;;3.13;;
15697;SDS011;7949;48.726;9.102;2024-02-14T03:20:34;6.85;;;4.20;;
15697;SDS011;7949;48.726;9.102;2024-02-14T03:23:02;9.38;;;3.83;;
15697;SDS011;7949;48.726;9.102;2024-02-14T03:25:29;8.30;;;3.30;;
15697;SDS011;7949;48.726;9.102;2024-02-14T03:27:57;7.35;;;3.55;;
15697;SDS011;7949;48.726;9.102;2024-02-14T03:30:24;5.50;;;3.17;;
15697;SDS011;7949;48.726;9.102;2024-02-14T03:32:54;8.65;;;3.15;;
15697;SDS011;7949;48.726;9.102;2024-02-14T03:35:21;9.52;;;3.53;;
15697;SDS011;7949;48.726;9.102;2024-02-14T03:37:48;7.65;;;3.25;;
15697;SDS011;7949;48.726;9.102;2024-02-14T03:40:17;6.80;;;3.50;;
15697;SDS011;7949;48.726;9.102;2024-02-14T03:42:45;5.93;;;2.80;;
15697;SDS011;7949;48.726;9.102;2024-02-14T03:45:13;7.28;;;2.80;;
15697;SDS011;7949;48.726;9.102;2024-02-14T03:47:40;8.13;;;2.97;;
15697;SDS011;7949;48.726;9.102;2024-02-14T03:50:09;4.75;;;2.30;;
15697;SDS011;7949;48.726;9.102;2024-02-14T03:52:36;7.45;;;2.30;;
15697;SDS011;7949;48.726;9.102;2024-02-14T03:55:05;5.35;;;2.20;;
15697;SDS011;7949;48.726;9.102;2024-02-14T03:57:33;4.68;;;2.40;;
15697;SDS011;7949;48.726;9.102;2024-02-14T04:00:04;5.18;;;2.30;;
15697;SDS011;7949;48.726;9.102;2024-02-14T04:02:33;11.68;;;2.15;;
15697;SDS011;7949;48.726;9.102;2024-02-14T04:05:01;5.80;;;2.15;;
15697;SDS011;7949;48.726;9.102;2024-02-14T04:07:30;4.57;;;2.20;;
15697;SDS011;7949;48.726;9.102;2024-02-14T04:09:57;3.30;;;2.05;;
15697;SDS011;7949;48.726;9.102;2024-02-14T04:12:24;4.30;;;1.80;;
15697;SDS011;7949;48.726;9.102;2024-02-14T04:14:51;4.72;;;2.30;;
15697;SDS011;7949;48.726;9.102;2024-02-14T04:17:19;7.45;;;2.40;;
15697;SDS011;7949;48.726;9.102;2024-02-14T04:19:46;6.28;;;2.72;;
15697;SDS011;7949;48.726;9.102;2024-02-14T04:22:13;8.07;;;2.45;;
15697;SDS011;7949;48.726;9.102;2024-02-14T04:24:42;3.72;;;2.10;;
15697;SDS011;7949;48.726;9.102;2024-02-14T04:27:09;9.93;;;2.20;;
15697;SDS011;7949;48.726;9.102;2024-02-14T04:29:36;4.15;;;2.67;;
15697;SDS011;7949;48.726;9.102;2024-02-14T04:32:04;4.00;;;2.38;;
15697;SDS011;7949;48.726;9.102;2024-02-14T04:34:31;3.60;;;2.17;;
15697;SDS011;7949;48.726;9.102;2024-02-14T04:36:58;3.88;;;2.20;;
15697;SDS011;7949;48.726;9.102;2024-02-14T04:39:27;4.50;;;2.40;;
15697;SDS011;7949;48.726;9.102;2024-02-14T04:41:56;4.72;;;2.25;;
15697;SDS011;7949;48.726;9.102;2024-02-14T04:44:23;10.07;;;2.50;;
15697;SDS011;7949;48.726;9.102;2024-02-14T04:46:50;5.28;;;2.08;;
15697;SDS011;7949;48.726;9.102;2024-02-14T04:49:18;9.70;;;2.25;;
15697;SDS011;7949;48.726;9.102;2024-02-14T04:51:46;8.15;;;4.15;;
15697;SDS011;7949;48.726;9.102;2024-02-14T04:54:13;7.43;;;2.13;;
15697;SDS011;7949;48.726;9.102;2024-02-14T04:56:41;5.93;;;1.90;;
15697;SDS011;7949;48.726;9.102;2024-02-14T04:59:11;4.35;;;1.95;;
15697;SDS011;7949;48.726;9.102;2024-02-14T05:01:39;6.03;;;3.03;;
15697;SDS011;7949;48.726;9.102;2024-02-14T05:04:06;3.00;;;1.65;;
15697;SDS011;7949;48.726;9.102;2024-02-14T05:06:33;10.82;;;1.90;;
15697;SDS011;7949;48.726;9.102;2024-02-14T05:09:01;4.07;;;1.98;;
15697;SDS011;7949;48.726;9.102;2024-02-14T05:11:28;4.43;;;1.90;;
15697;SDS011;7949;48.726;9.102;2024-02-14T05:13:56;5.10;;;2.20;;
15697;SDS011;7949;48.726;9.102;2024-02-14T05:16:24;2.70;;;1.67;;
15697;SDS011;7949;48.726;9.102;2024-02-14T05:18:52;4.82;;;1.55;;
15697;SDS011;7949;48.726;9.102;2024-02-14T05:21:19;6.88;;;2.53;;
15697;SDS011;7949;48.726;9.102;2024-02-14T05:23:47;6.35;;;2.13;;
15697;SDS011;7949;48.726;9.102;2024-02-14T05:26:15;4.50;;;2.05;;
15697;SDS011;7949;48.726;9.102;2024-02-14T05:28:42;5.25;;;1.95;;
15697;SDS011;7949;48.726;9.102;2024-02-14T05:31:09;5.63;;;2.13;;
15697;SDS011;7949;48.726;9.102;2024-02-14T05:33:38;4.65;;;1.83;;
15697;SDS011;7949;48.726;9.102;2024-02-14T05:36:05;4.30;;;1.70;;
15697;SDS011;7949;48.726;9.102;2024-02-14T05:38:33;3.00;;;1.35;;
15697;SDS011;7949;48.726;9.102;2024-02-14T05:41:00;8.13;;;1.73;;
15697;SDS011;7949;48.726;9.102;2024-02-14T05:43:28;3.30;;;1.55;;
15697;SDS011;7949;48.726;9.102;2024-02-14T05:45:55;4.00;;;1.60;;
15697;SDS011;7949;48.726;9.102;2024-02-14T05:48:22;4.05;;;2.30;;
15697;SDS011;7949;48.726;9.102;2024-02-14T05:50:52;3.70;;;1.40;;
15697;SDS011;7949;48.726;9.102;2024-02-14T05:53:19;5.75;;;1.85;;
15697;SDS011;7949;48.726;9.102;2024-02-14T05:55:46;4.85;;;1.58;;
15697;SDS011;7949;48.726;9.102;2024-02-14T05:58:13;4.47;;;1.65;;
15697;SDS011;7949;48.726;9.102;2024-02-14T06:00:41;4.63;;;1.63;;
15697;SDS011;7949;48.726;9.102;2024-02-14T06:03:08;4.95;;;1.65;;
15697;SDS011;7949;48.726;9.102;2024-02-14T06:05:35;2.95;;;1.00;;
15697;SDS011;7949;48.726;9.102;2024-02-14T06:08:04;5.32;;;1.65;;
15697;SDS011;7949;48.726;9.102;2024-02-14T06:10:31;3.85;;;1.60;;
15697;SDS011;7949;48.726;9.102;2024-02-14T06:13:00;5.03;;;1.90;;
15697;SDS011;7949;48.726;9.102;2024-02-14T06:15:27;4.68;;;1.50;;
15697;SDS011;7949;48.726;9.102;2024-02-14T06:17:54;2.50;;;1.27;;
15697;SDS011;7949;48.726;9.102;2024-02-14T06:20:22;5.15;;;1.67;;
15697;SDS011;7949;48.726;9.102;2024-02-14T06:22:50;3.20;;;1.30;;
15697;SDS011;7949;48.726;9.102;2024-02-14T06:25:19;5.32;;;1.40;;
15697;SDS011;7949;48.726;9.102;2024-02-14T06:27:46;1.83;;;1.20;;
15697;SDS011;7949;48.726;9.102;2024-02-14T06:30:13;5.05;;;1.40;;
15697;SDS011;7949;48.726;9.102;2024-02-14T06:32:42;8.00;;;1.88;;
15697;SDS011;7949;48.726;9.102;2024-02-14T06:35:09;2.83;;;1.50;;
15697;SDS011;7949;48.726;9.102;2024-02-14T06:37:36;4.05;;;1.50;;
15697;SDS011;7949;48.726;9.102;2024-02-14T06:40:04;4.95;;;1.40;;
15697;SDS011;7949;48.726;9.102;2024-02-14T06:42:35;3.95;;;1.23;;
15697;SDS011;7949;48.726;9.102;2024-02-14T06:45:02;4.95;;;1.33;;
15697;SDS011;7949;48.726;9.102;2024-02-14T06:47:30;3.63;;;1.60;;
15697;SDS011;7949;48.726;9.102;2024-02-14T06:49:57;4.25;;;1.25;;
15697;SDS011;7949;48.726;9.102;2024-02-14T06:52:25;3.78;;;1.50;;
15697;SDS011;7949;48.726;9.102;2024-02-14T06:54:52;4.55;;;1.60;;
15697;SDS011;7949;48.726;9.102;2024-02-14T06:57:19;5.00;;;1.85;;
15697;SDS011;7949;48.726;9.102;2024-02-14T06:59:48;1.95;;;1.30;;
15697;SDS011;7949;48.726;9.102;2024-02-14T07:02:15;3.15;;;1.60;;
15697;SDS011;7949;48.726;9.102;2024-02-14T07:04:42;4.22;;;1.40;;
15697;SDS011;7949;48.726;9.102;2024-02-14T07:07:10;6.20;;;1.75;;
15697;SDS011;7949;48.726;9.102;2024-02-14T07:09:37;2.08;;;1.30;;
15697;SDS011;7949;48.726;9.102;2024-02-14T07:12:04;2.50;;;1.30;;
15697;SDS011;7949;48.726;9.102;2024-02-14T07:14:32;1.63;;;1.05;;
15697;SDS011;7949;48.726;9.102;2024-02-14T07:17:00;2.75;;;1.30;;
15697;SDS011;7949;48.726;9.102;2024-02-14T07:19:28;4.13;;;1.40;;
15697;SDS011;7949;48.726;9.102;2024-02-14T07:21:55;5.10;;;0.98;;
15697;SDS011;7949;48.726;9.102;2024-02-14T07:24:23;1.92;;;1.05;;
15697;SDS011;7949;48.726;9.102;2024-02-14T07:26:50;3.53;;;1.40;;
15697;SDS011;7949;48.726;9.102;2024-02-14T07:29:17;4.70;;;0.90;;
15697;SDS011;7949;48.726;9.102;2024-02-14T07:31:44;9.60;;;1.58;;
15697;SDS011;7949;48.726;9.102;2024-02-14T07:34:13;4.32;;;1.13;;
15697;SDS011;7949;48.726;9.102;2024-02-14T07:36:40;5.85;;;1.20;;
15697;SDS011;7949;48.726;9.102;2024-02-14T07:39:11;2.55;;;1.00;;
15697;SDS011;7949;48.726;9.102;2024-02-14T07:41:38;4.60;;;1.20;;
15697;SDS011;7949;48.726;9.102;2024-02-14T07:44:05;2.88;;;1.30;;
15697;SDS011;7949;48.726;9.102;2024-02-14T07:46:32;1.20;;;0.85;;
15697;SDS011;7949;48.726;9.102;2024-02-14T07:49:00;3.88;;;1.05;;
15697;SDS011;7949;48.726;9.102;2024-02-14T07:51:29;1.63;;;1.10;;
15697;SDS011;7949;48.726;9.102;2024-02-14T07:54:01;4.88;;;1.30;;
15697;SDS011;7949;48.726;9.102;2024-02-14T07:56:29;6.28;;;1.10;;
15697;SDS011;7949;48.726;9.102;2024-02-14T07:58:56;5.40;;;1.08;;
15697;SDS011;7949;48.726;9.102;2024-02-14T08:01:23;2.10;;;0.90;;
15697;SDS011;7949;48.726;9.102;2024-02-14T08:03:51;3.47;;;1.17;;
15697;SDS011;7949;48.726;9.102;2024-02-14T08:06:18;3.58;;;1.08;;
15697;SDS011;7949;48.726;9.102;2024-02-14T08:08:47;3.85;;;1.55;;
15697;SDS011;7949;48.726;9.102;2024-02-14T08:11:16;3.33;;;0.80;;
15697;SDS011;7949;48.726;9.102;2024-02-14T08:13:43;5.97;;;1.30;;
15697;SDS011;7949;48.726;9.102;2024-02-14T08:16:11;4.53;;;1.10;;
15697;SDS011;7949;48.726;9.102;2024-02-14T08:18:38;1.90;;;1.10;;
15697;SDS011;7949;48.726;9.102;2024-02-14T08:21:09;1.30;;;0.90;;
15697;SDS011;7949;48.726;9.102;2024-02-14T08:23:37;4.25;;;0.90;;
15697;SDS011;7949;48.726;9.102;2024-02-14T08:26:08;5.05;;;1.10;;
15697;SDS011;7949;48.726;9.102;2024-02-14T08:28:36;6.25;;;1.42;;
15697;SDS011;7949;48.726;9.102;2024-02-14T08:31:03;2.60;;;1.20;;
15697;SDS011;7949;48.726;9.102;2024-02-14T08:33:30;4.65;;;1.08;;
15697;SDS011;7949;48.726;9.102;2024-02-14T08:35:58;1.85;;;1.25;;
15697;SDS011;7949;48.726;9.102;2024-02-14T08:38:25;2.15;;;1.30;;
15697;SDS011;7949;48.726;9.102;2024-02-14T08:40:52;5.20;;;1.60;;
15697;SDS011;7949;48.726;9.102;2024-02-14T08:43:21;2.47;;;1.00;;
15697;SDS011;7949;48.726;9.102;2024-02-14T08:45:50;1.88;;;0.90;;
15697;SDS011;7949;48.726;9.102;2024-02-14T08:48:17;2.55;;;1.30;;
15697;SDS011;7949;48.726;9.102;2024-02-14T08:50:44;1.70;;;1.10;;
15697;SDS011;7949;48.726;9.102;2024-02-14T08:53:12;2.35;;;0.98;;
15697;SDS011;7949;48.726;9.102;2024-02-14T08:55:40;3.08;;;1.02;;
15697;SDS011;7949;48.726;9.102;2024-02-14T08:58:07;2.85;;;0.95;;
15697;SDS011;7949;48.726;9.102;2024-02-14T09:00:36;3.70;;;1.60;;
15697;SDS011;7949;48.726;9.102;2024-02-14T09:03:05;3.55;;;1.10;;
15697;SDS011;7949;48.726;9.102;2024-02-14T09:05:33;4.22;;;1.05;;
15697;SDS011;7949;48.726;9.102;2024-02-14T09:08:01;2.90;;;1.73;;
15697;SDS011;7949;48.726;9.102;2024-02-14T09:10:28;2.00;;;1.02;;
15697;SDS011;7949;48.726;9.102;2024-02-14T09:12:55;5.75;;;1.10;;
15697;SDS011;7949;48.726;9.102;2024-02-14T09:15:22;1.73;;;0.90;;
15697;SDS011;7949;48.726;9.102;2024-02-14T09:17:52;2.35;;;1.10;;
15697;SDS011;7949;48.726;9.102;2024-02-14T09:20:20;4.90;;;1.00;;
15697;SDS011;7949;48.726;9.102;2024-02-14T09:22:47;3.70;;;1.10;;
15697;SDS011;7949;48.726;9.102;2024-02-14T09:25:14;6.13;;;1.05;;
15697;SDS011;7949;48.726;9.102;2024-02-14T09:27:42;4.40;;;1.50;;
15697;SDS011;7949;48.726;9.102;2024-02-14T09:30:12;4.63;;;0.95;;
15697;SDS011;7949;48.726;9.102;2024-02-14T09:32:39;4.55;;;1.20;;
15697;SDS011;7949;48.726;9.102;2024-02-14T09:35:08;2.58;;;0.88;;
15697;SDS011;7949;48.726;9.102;2024-02-14T09:37:35;4.03;;;1.35;;
15697;SDS011;7949;48.726;9.102;2024-02-14T09:40:04;4.10;;;1.40;;
15697;SDS011;7949;48.726;9.102;2024-02-14T09:42:33;3.47;;;1.00;;
15697;SDS011;7949;48.726;9.102;2024-02-14T09:45:04;1.73;;;0.98;;
15697;SDS011;7949;48.726;9.102;2024-02-14T09:47:33;4.15;;;1.10;;
15697;SDS011;7949;48.726;9.102;2024-02-14T09:50:01;2.05;;;1.02;;
15697;SDS011;7949;48.726;9.102;2024-02-14T09:52:32;3.10;;;1.02;;
15697;SDS011;7949;48.726;9.102;2024-02-14T09:55:00;2.75;;;1.00;;
15697;SDS011;7949;48.726;9.102;2024-02-14T09:57:29;2.63;;;1.20;;
15697;SDS011;7949;48.726;9.102;2024-02-14T09:59:56;1.90;;;0.80;;
15697;SDS011;7949;48.726;9.102;2024-02-14T10:02:23;3.35;;;1.05;;
15697;SDS011;7949;48.726;9.102;2024-02-14T10:04:51;1.33;;;0.70;;
15697;SDS011;7949;48.726;9.102;2024-02-14T10:07:18;3.65;;;0.95;;
15697;SDS011;7949;48.726;9.102;2024-02-14T10:09:47;3.08;;;1.00;;
15697;SDS011;7949;48.726;9.102;2024-02-14T10:12:14;2.72;;;0.90;;
15697;SDS011;7949;48.726;9.102;2024-02-14T10:14:42;1.58;;;0.70;;
15697;SDS011;7949;48.726;9.102;2024-02-14T10:17:16;1.27;;;0.90;;
15697;SDS011;7949;48.726;9.102;2024-02-14T10:19:54;3.47;;;1.00;;
15697;SDS011;7949;48.726;9.102;2024-02-14T10:22:21;2.50;;;0.80;;
15697;SDS011;7949;48.726;9.102;2024-02-14T10:24:50;1.85;;;1.20;;
15697;SDS011;7949;48.726;9.102;2024-02-14T10:27:17;3.17;;;0.82;;
15697;SDS011;7949;48.726;9.102;2024-02-14T10:29:44;2.88;;;1.10;;
15697;SDS011;7949;48.726;9.102;2024-02-14T10:32:14;1.40;;;0.90;;
15697;SDS011;7949;48.726;9.102;2024-02-14T10:34:42;3.92;;;1.00;;
15697;SDS011;7949;48.726;9.102;2024-02-14T10:37:13;2.22;;;0.98;;
15697;SDS011;7949;48.726;9.102;2024-02-14T10:39:41;3.38;;;1.52;;
15697;SDS011;7949;48.726;9.102;2024-02-14T10:42:11;4.32;;;1.08;;
15697;SDS011;7949;48.726;9.102;2024-02-14T10:44:39;2.22;;;0.82;;
15697;SDS011;7949;48.726;9.102;2024-02-14T10:47:07;2.28;;;0.85;;
15697;SDS011;7949;48.726;9.102;2024-02-14T10:49:35;1.15;;;0.77;;
15697;SDS011;7949;48.726;9.102;2024-02-14T10:52:04;1.48;;;0.80;;
15697;SDS011;7949;48.726;9.102;2024-02-14T10:54:32;3.58;;;0.95;;
15697;SDS011;7949;48.726;9.102;2024-02-14T10:57:01;5.00;;;1.13;;
15697;SDS011;7949;48.726;9.102;2024-02-14T10:59:33;4.40;;;1.00;;
15697;SDS011;7949;48.726;9.102;2024-02-14T11:02:02;1.88;;;0.80;;
15697;SDS011;7949;48.726;9.102;2024-02-14T11:04:29;1.17;;;0.73;;
15697;SDS011;7949;48.726;9.102;2024-02-14T11:06:58;3.25;;;0.70;;
15697;SDS011;7949;48.726;9.102;2024-02-14T11:09:31;3.65;;;0.70;;
15697;SDS011;7949;48.726;9.102;2024-02-14T11:12:00;4.45;;;0.90;;
15697;SDS011;7949;48.726;9.102;2024-02-14T11:14:29;2.15;;;0.70;;
15697;SDS011;7949;48.726;9.102;2024-02-14T11:16:58;1.58;;;0.90;;
15697;SDS011;7949;48.726;9.102;2024-02-14T11:19:30;4.95;;;0.93;;
15697;SDS011;7949;48.726;9.102;2024-02-14T11:21:59;1.13;;;0.70;;
15697;SDS011;7949;48.726;9.102;2024-02-14T11:24:36;1.25;;;0.68;;
15697;SDS011;7949;48.726;9.102;2024-02-14T11:27:08;1.25;;;0.60;;
15697;SDS011;7949;48.726;9.102;2024-02-14T11:32:05;1.25;;;0.50;;
15697;SDS011;7949;48.726;9.102;2024-02-14T11:34:34;1.98;;;0.80;;
15697;SDS011;7949;48.726;9.102;2024-02-14T11:37:02;4.88;;;0.60;;
15697;SDS011;7949;48.726;9.102;2024-02-14T11:39:32;4.40;;;0.60;;
15697;SDS011;7949;48.726;9.102;2024-02-14T11:42:00;1.15;;;0.60;;
15697;SDS011;7949;48.726;9.102;2024-02-14T11:44:27;1.00;;;0.63;;
15697;SDS011;7949;48.726;9.102;2024-02-14T11:46:54;1.55;;;0.70;;
15697;SDS011;7949;48.726;9.102;2024-02-14T11:49:23;2.25;;;0.50;;
15697;SDS011;7949;48.726;9.102;2024-02-14T11:51:51;0.60;;;0.40;;
15697;SDS011;7949;48.726;9.102;2024-02-14T11:54:18;2.90;;;0.60;;
15697;SDS011;7949;48.726;9.102;2024-02-14T11:56:46;0.85;;;0.50;;
15697;SDS011;7949;48.726;9.102;2024-02-14T11:59:14;0.93;;;0.50;;
15697;SDS011;7949;48.726;9.102;2024-02-14T12:01:44;1.52;;;0.70;;
15697;SDS011;7949;48.726;9.102;2024-02-14T12:04:13;1.30;;;0.50;;
15697;SDS011;7949;48.726;9.102;2024-02-14T12:06:42;1.35;;;0.80;;
15697;SDS011;7949;48.726;9.102;2024-02-14T12:09:09;2.42;;;0.60;;
15697;SDS011;7949;48.726;9.102;2024-02-14T12:11:38;1.55;;;0.70;;
15697;SDS011;7949;48.726;9.102;2024-02-14T12:14:07;1.17;;;0.60;;
15697;SDS011;7949;48.726;9.102;2024-02-14T12:16:35;1.08;;;0.52;;
15697;SDS011;7949;48.726;9.102;2024-02-14T12:19:03;1.35;;;0.50;;
15697;SDS011;7949;48.726;9.102;2024-02-14T12:21:33;0.63;;;0.50;;
15697;SDS011;7949;48.726;9.102;2024-02-14T12:24:02;0.63;;;0.60;;
15697;SDS011;7949;48.726;9.102;2024-02-14T12:26:30;3.05;;;0.80;;
15697;SDS011;7949;48.726;9.102;2024-02-14T12:28:58;1.15;;;0.50;;
15697;SDS011;7949;48.726;9.102;2024-02-14T12:31:28;0.80;;;0.60;;
15697;SDS011;7949;48.726;9.102;2024-02-14T12:33:56;0.90;;;0.50;;
15697;SDS011;7949;48.726;9.102;2024-02-14T12:36:25;1.27;;;0.50;;
15697;SDS011;7949;48.726;9.102;2024-02-14T12:38:52;1.00;;;0.40;;
15697;SDS011;7949;48.726;9.102;2024-02-14T12:41:22;1.40;;;0.50;;
15697;SDS011;7949;48.726;9.102;2024-02-14T12:43:51;0.85;;;0.30;;
15697;SDS011;7949;48.726;9.102;2024-02-14T12:46:18;0.93;;;0.38;;
15697;SDS011;7949;48.726;9.102;2024-02-14T12:48:46;1.23;;;0.38;;
15697;SDS011;7949;48.726;9.102;2024-02-14T12:51:13;2.05;;;0.40;;
15697;SDS011;7949;48.726;9.102;2024-02-14T12:53:40;0.90;;;0.52;;
15697;SDS011;7949;48.726;9.102;2024-02-14T12:56:08;0.93;;;0.40;;
15697;SDS011;7949;48.726;9.102;2024-02-14T12:58:36;4.82;;;0.70;;
15697;SDS011;7949;48.726;9.102;2024-02-14T13:01:04;1.58;;;0.40;;
15697;SDS011;7949;48.726;9.102;2024-02-14T13:03:31;0.85;;;0.30;;
15697;SDS011;7949;48.726;9.102;2024-02-14T13:06:00;2.00;;;0.43;;
15697;SDS011;7949;48.726;9.102;2024-02-14T13:08:27;0.40;;;0.30;;
15697;SDS011;7949;48.726;9.102;2024-02-14T13:10:54;1.55;;;0.40;;
15697;SDS011;7949;48.726;9.102;2024-02-14T13:13:22;1.23;;;0.43;;
15697;SDS011;7949;48.726;9.102;2024-02-14T13:15:52;0.52;;;0.30;;
15697;SDS011;7949;48.726;9.102;2024-02-14T13:18:19;0.80;;;0.30;;
15697;SDS011;7949;48.726;9.102;2024-02-14T13:20:46;4.28;;;0.38;;
15697;SDS011;7949;48.726;9.102;2024-02-14T13:23:18;0.95;;;0.40;;
15697;SDS011;7949;48.726;9.102;2024-02-14T13:25:46;0.80;;;0.40;;
15697;SDS011;7949;48.726;9.102;2024-02-14T13:28:14;1.23;;;0.30;;
15697;SDS011;7949;48.726;9.102;2024-02-14T13:30:41;0.60;;;0.30;;
15697;SDS011;7949;48.726;9.102;2024-02-14T13:33:10;1.75;;;0.40;;
15697;SDS011;7949;48.726;9.102;2024-02-14T13:35:37;1.48;;;0.30;;
15697;SDS011;7949;48.726;9.102;2024-02-14T13:38:05;1.35;;;0.30;;
15697;SDS011;7949;48.726;9.102;2024-02-14T13:40:33;0.55;;;0.30;;
15697;SDS011;7949;48.726;9.102;2024-02-14T13:43:00;0.52;;;0.20;;
15697;SDS011;7949;48.726;9.102;2024-02-14T13:45:30;0.40;;;0.20;;
15697;SDS011;7949;48.726;9.102;2024-02-14T13:48:07;0.32;;;0.10;;
15697;SDS011;7949;48.726;9.102;2024-02-14T13:50:36;1.13;;;0.25;;
15697;SDS011;7949;48.726;9.102;2024-02-14T13:53:04;0.75;;;0.22;;
15697;SDS011;7949;48.726;9.102;2024-02-14T13:55:31;1.33;;;0.40;;
15697;SDS011;7949;48.726;9.102;2024-02-14T13:57:58;0.75;;;0.10;;
15697;SDS011;7949;48.726;9.102;2024-02-14T14:00:26;2.65;;;0.20;;
15697;SDS011;7949;48.726;9.102;2024-02-14T14:02:53;4.03;;;0.30;;
15697;SDS011;7949;48.726;9.102;2024-02-14T14:05:20;1.05;;;0.30;;
15697;SDS011;7949;48.726;9.102;2024-02-14T14:07:49;0.73;;;0.30;;
15697;SDS011;7949;48.726;9.102;2024-02-14T14:10:17;1.15;;;0.30;;
15697;SDS011;7949;48.726;9.102;2024-02-14T14:12:44;1.27;;;0.30;;
15697;SDS011;7949;48.726;9.102;2024-02-14T14:15:11;1.40;;;0.32;;
15697;SDS011;7949;48.726;9.102;2024-02-14T14:17:38;0.32;;;0.30;;
15697;SDS011;7949;48.726;9.102;2024-02-14T14:20:06;0.35;;;0.15;;
15697;SDS011;7949;48.726;9.102;2024-02-14T14:22:33;0.50;;;0.30;;
15697;SDS011;7949;48.726;9.102;2024-02-14T14:25:03;0.30;;;0.30;;
15697;SDS011;7949;48.726;9.102;2024-02-14T14:27:31;1.65;;;0.50;;
15697;SDS011;7949;48.726;9.102;2024-02-14T14:29:58;1.48;;;0.30;;
15697;SDS011;7949;48.726;9.102;2024-02-14T14:32:25;1.85;;;0.35;;
15697;SDS011;7949;48.726;9.102;2024-02-14T14:34:53;1.50;;;0.30;;
15697;SDS011;7949;48.726;9.102;2024-02-14T14:37:21;0.82;;;0.65;;
15697;SDS011;7949;48.726;9.102;2024-02-14T14:39:49;1.80;;;0.60;;
15697;SDS011;7949;48.726;9.102;2024-02-14T14:42:18;0.32;;;0.30;;
15697;SDS011;7949;48.726;9.102;2024-02-14T14:44:45;0.47;;;0.40;;
15697;SDS011;7949;48.726;9.102;2024-02-14T14:47:12;0.85;;;0.80;;
15697;SDS011;7949;48.726;9.102;2024-02-14T14:49:40;2.10;;;0.40;;
15697;SDS011;7949;48.726;9.102;2024-02-14T14:52:07;0.22;;;0.22;;
15697;SDS011;7949;48.726;9.102;2024-02-14T14:54:35;0.85;;;0.40;;
15697;SDS011;7949;48.726;9.102;2024-02-14T14:57:02;0.75;;;0.45;;
15697;SDS011;7949;48.726;9.102;2024-02-14T14:59:35;1.55;;;0.38;;
15697;SDS011;7949;48.726;9.102;2024-02-14T15:02:03;1.00;;;0.30;;
15697;SDS011;7949;48.726;9.102;2024-02-14T15:04:30;1.05;;;0.32;;
15697;SDS011;7949;48.726;9.102;2024-02-14T15:06:59;4.90;;;0.60;;